Time;durP1;ratioP1;P1;durP2;ratioP2;P2;SDS_P1;SDS_P2;PMS_P1;PMS_P2;Temp;Humidity;BMP_temperature;BMP_pressure;BME280_temperature;BME280_humidity;BME280_pressure;Samples;Min_cycle;Max_cycle;Signal;HPM_P1;HPM_P2
2022/09/29 00:01:42;;;;;;;6.53;4.38;;;;;;;6.54;94.58;99916.69;5004057;28;20041;-81
2022/09/29 00:04:08;;;;;;;5.53;4.50;;;;;;;6.58;94.08;99925.78;5007055;28;20489;-82
2022/09/29 00:06:33;;;;;;;7.95;4.40;;;;;;;6.61;93.71;99933.28;5006865;28;20132;-81
2022/09/29 00:08:59;;;;;;;7.13;4.38;;;;;;;6.52;94.30;99929.66;5006855;28;20033;-81
2022/09/29 00:11:24;;;;;;;6.22;3.83;;;;;;;6.58;94.03;99926.59;5005371;28;20033;-81
2022/09/29 00:13:50;;;;;;;7.95;4.47;;;;;;;6.51;93.79;99919.47;4996213;28;20478;-81
2022/09/29 00:16:15;;;;;;;7.63;3.67;;;;;;;6.56;93.91;99922.53;5002802;28;20045;-81
2022/09/29 00:18:41;;;;;;;7.22;4.20;;;;;;;6.61;93.72;99925.56;5006590;28;20475;-82
2022/09/29 00:21:15;;;;;;;8.65;5.63;;;;;;;6.54;94.27;99924.41;5006068;28;20049;-82
2022/09/29 00:23:41;;;;;;;6.22;4.10;;;;;;;6.61;93.76;99925.56;5005320;28;20393;-81
2022/09/29 00:26:07;;;;;;;7.57;4.90;;;;;;;6.47;94.37;99911.16;5000069;28;20472;-81
2022/09/29 00:28:34;;;;;;;7.20;4.40;;;;;;;6.61;94.21;99922.97;5006314;28;20463;-81
2022/09/29 00:31:00;;;;;;;6.30;4.65;;;;;;;6.46;94.35;99903.56;4999963;28;20025;-81
2022/09/29 00:33:35;;;;;;;6.80;5.00;;;;;;;6.48;94.42;99909.41;5006625;28;20072;-81
2022/09/29 00:36:05;;;;;;;8.07;5.28;;;;;;;6.54;94.35;99924.41;5007262;28;20108;-81
2022/09/29 00:38:31;;;;;;;8.85;5.18;;;;;;;6.55;94.11;99926.03;5001423;28;20061;-81
2022/09/29 00:40:57;;;;;;;10.18;5.22;;;;;;;6.47;94.21;99907.78;5006485;28;20525;-81
2022/09/29 00:43:44;;;;;;;8.25;5.00;;;;;;;6.52;94.76;99915.97;5006308;28;20084;-81
2022/09/29 00:46:12;;;;;;;9.95;4.93;;;;;;;6.49;94.37;99906.75;5010245;28;20479;-81
2022/09/29 00:48:38;;;;;;;8.00;4.90;;;;;;;6.44;94.36;99902.88;5010626;28;20030;-81
2022/09/29 00:51:04;;;;;;;10.15;5.78;;;;;;;6.47;94.14;99912.94;5010339;28;20296;-81
2022/09/29 00:53:30;;;;;;;8.77;6.38;;;;;;;6.44;94.58;99913.19;5007435;28;20038;-81
2022/09/29 00:56:02;;;;;;;7.40;5.43;;;;;;;6.37;94.45;99905.94;5010343;28;20033;-81
2022/09/29 00:58:30;;;;;;;7.50;5.45;;;;;;;6.48;94.45;99923.13;5002913;28;20101;-82
2022/09/29 01:00:56;;;;;;;10.02;5.13;;;;;;;6.47;93.92;99918.09;5010235;28;20041;-81
2022/09/29 01:03:24;;;;;;;9.10;5.50;;;;;;;6.51;94.82;99919.47;5006851;28;20026;-82
2022/09/29 01:05:56;;;;;;;8.07;5.47;;;;;;;6.47;94.13;99920.66;5008812;28;20421;-82
2022/09/29 01:08:35;;;;;;;8.40;6.57;;;;;;;6.30;94.31;99915.06;5006651;28;20030;-81
2022/09/29 01:11:03;;;;;;;7.88;5.25;;;;;;;6.26;94.49;99921.41;5008051;28;20040;-81
2022/09/29 01:13:30;;;;;;;7.68;4.45;;;;;;;6.24;94.01;99907.81;5008493;28;20045;-81
2022/09/29 01:15:55;;;;;;;9.27;6.40;;;;;;;6.20;94.41;99927.03;5004261;28;20123;-81
2022/09/29 01:18:20;;;;;;;8.40;4.65;;;;;;;6.23;93.34;99926.78;5009819;28;20420;-81
2022/09/29 01:21:02;;;;;;;7.68;5.25;;;;;;;6.12;93.60;99911.38;5010021;28;20034;-81
2022/09/29 01:24:07;;;;;;;9.10;4.35;;;;;;;6.19;93.01;99920.25;5006520;28;20041;-81
2022/09/29 01:27:03;;;;;;;8.38;4.32;;;;;;;6.13;93.23;99915.56;4997108;28;20121;-81
2022/09/29 01:29:47;;;;;;;9.73;5.50;;;;;;;6.06;93.83;99920.38;5009164;28;20220;-81
2022/09/29 01:32:30;;;;;;;7.43;4.65;;;;;;;6.07;93.44;99926.34;5008975;28;20025;-81
2022/09/29 01:35:22;;;;;;;7.18;4.63;;;;;;;6.07;93.55;99923.75;5001962;28;20030;-81
2022/09/29 01:38:09;;;;;;;7.25;5.50;;;;;;;6.02;94.43;99918.16;5006575;28;20121;-81
2022/09/29 01:40:41;;;;;;;8.30;6.20;;;;;;;5.96;94.32;99913.47;5007772;28;20080;-81
2022/09/29 01:43:12;;;;;;;8.18;5.05;;;;;;;6.04;93.86;99926.59;5003927;28;20099;-81
2022/09/29 01:45:45;;;;;;;8.07;6.25;;;;;;;6.00;94.78;99935.47;4995693;28;20032;-82
2022/09/29 01:48:17;;;;;;;7.38;4.93;;;;;;;6.03;93.92;99930.09;5009423;28;20036;-82
2022/09/29 01:50:47;;;;;;;7.45;5.20;;;;;;;5.93;94.78;99924.03;5007837;28;20129;-81
2022/09/29 01:53:17;;;;;;;8.10;4.65;;;;;;;5.95;94.66;99919.56;5008363;28;20087;-82
2022/09/29 01:55:49;;;;;;;6.53;4.63;;;;;;;6.00;94.09;99930.34;5008744;28;20025;-81
2022/09/29 01:58:42;;;;;;;7.10;5.07;;;;;;;5.99;94.78;99932.09;4999334;28;20046;-81
2022/09/29 02:01:11;;;;;;;6.97;4.75;;;;;;;5.95;93.79;99929.88;5000380;28;20361;-82
2022/09/29 02:03:45;;;;;;;6.75;4.25;;;;;;;5.94;94.42;99926.47;5007440;28;20116;-82
2022/09/29 02:06:16;;;;;;;6.78;4.22;;;;;;;5.92;93.46;99918.06;5007628;28;20061;-82
2022/09/29 02:08:48;;;;;;;5.22;3.40;;;;;;;5.94;94.06;99920.50;5003061;28;20037;-81
2022/09/29 02:11:16;;;;;;;6.22;4.68;;;;;;;5.90;93.29;99930.16;5004064;28;20025;-81
2022/09/29 02:14:11;;;;;;;5.38;3.67;;;;;;;5.90;94.17;99924.22;5009461;28;20040;-81
2022/09/29 02:16:46;;;;;;;7.78;4.03;;;;;;;5.85;93.38;99927.97;5001876;28;20026;-81
2022/09/29 02:19:21;;;;;;;6.68;4.55;;;;;;;5.81;94.36;99926.56;4997376;28;20045;-81
2022/09/29 02:21:47;;;;;;;6.88;4.30;;;;;;;5.76;93.57;99920.94;5000925;28;20411;-81
2022/09/29 02:24:13;;;;;;;6.15;3.90;;;;;;;5.72;93.25;99911.81;5008320;28;20021;-81
2022/09/29 02:26:40;;;;;;;6.82;4.30;;;;;;;5.76;93.90;99920.94;4999958;28;20394;-81
2022/09/29 02:29:07;;;;;;;7.30;4.40;;;;;;;5.67;93.34;99923.38;5007827;28;20376;-81
2022/09/29 02:31:34;;;;;;;10.43;4.90;;;;;;;5.76;93.32;99938.97;5008295;28;20030;-81
2022/09/29 02:34:02;;;;;;;9.23;4.63;;;;;;;5.68;93.17;99935.31;5008267;28;20109;-81
2022/09/29 02:36:37;;;;;;;7.43;5.00;;;;;;;5.67;93.12;99944.78;5003854;28;20026;-81
2022/09/29 02:39:29;;;;;;;8.77;5.18;;;;;;;5.68;93.81;99936.16;5006887;28;20026;-81
2022/09/29 02:42:07;;;;;;;7.68;5.57;;;;;;;5.66;94.24;99938.00;4997492;28;20100;-81
2022/09/29 02:44:41;;;;;;;7.10;4.47;;;;;;;5.64;93.67;99937.31;5002261;28;20026;-81
2022/09/29 02:47:34;;;;;;;7.85;5.20;;;;;;;5.63;93.80;99938.25;5007773;28;20034;-81
2022/09/29 02:50:25;;;;;;;7.90;4.88;;;;;;;5.59;93.36;99937.66;4997616;28;20572;-82
2022/09/29 02:53:15;;;;;;;7.78;4.32;;;;;;;5.54;93.56;99926.06;5007868;28;20030;-81
2022/09/29 02:55:47;;;;;;;8.35;4.88;;;;;;;5.51;93.52;99926.31;5002400;28;20057;-82
2022/09/29 02:58:25;;;;;;;7.63;4.82;;;;;;;5.42;93.61;99919.28;4994490;28;20060;-81
2022/09/29 03:00:53;;;;;;;9.15;5.03;;;;;;;5.44;93.19;99927.69;4994456;28;20073;-81
2022/09/29 03:03:18;;;;;;;7.97;5.57;;;;;;;5.47;93.28;99937.75;5004450;28;20030;-81
2022/09/29 03:05:44;;;;;;;8.98;5.53;;;;;;;5.41;94.06;99933.88;5007908;28;20125;-81
2022/09/29 03:08:09;;;;;;;8.57;5.50;;;;;;;5.36;93.86;99925.69;5007873;28;20014;-81
2022/09/29 03:10:34;;;;;;;10.98;6.03;;;;;;;5.42;93.50;99929.56;5007003;28;20383;-81
2022/09/29 03:13:00;;;;;;;8.85;6.05;;;;;;;5.37;93.97;99931.66;5008073;28;20032;-81
2022/09/29 03:15:25;;;;;;;8.48;5.13;;;;;;;5.42;93.84;99939.84;5007796;28;20026;-82
2022/09/29 03:17:55;;;;;;;8.32;6.07;;;;;;;5.21;93.41;99927.63;5007837;28;20037;-81
2022/09/29 03:20:20;;;;;;;7.85;6.00;;;;;;;5.25;94.11;99939.34;5008039;28;20123;-82
2022/09/29 03:22:46;;;;;;;7.45;5.25;;;;;;;5.24;93.35;99927.41;5006577;28;20471;-81
2022/09/29 03:25:13;;;;;;;9.05;5.57;;;;;;;5.26;93.26;99925.53;5006244;28;20058;-81
2022/09/29 03:27:38;;;;;;;6.95;4.82;;;;;;;5.27;94.14;99934.88;5007465;28;20037;-81
2022/09/29 03:30:04;;;;;;;8.70;5.00;;;;;;;5.21;93.72;99919.91;5006309;28;20034;-81
2022/09/29 03:32:30;;;;;;;6.75;4.63;;;;;;;5.26;93.73;99938.41;5003558;28;20467;-81
2022/09/29 03:34:55;;;;;;;9.20;5.05;;;;;;;5.18;93.32;99921.91;5007577;28;20459;-81
2022/09/29 03:37:20;;;;;;;8.57;5.30;;;;;;;5.16;93.47;99922.03;5007035;28;20034;-81
2022/09/29 03:39:46;;;;;;;7.68;5.05;;;;;;;5.19;93.48;99923.56;4994353;28;20030;-82
2022/09/29 03:42:11;;;;;;;9.68;5.40;;;;;;;5.20;93.84;99923.44;5006767;28;20034;-81
2022/09/29 03:44:36;;;;;;;7.43;5.72;;;;;;;5.16;94.17;99923.75;5003751;28;20022;-81
2022/09/29 03:47:02;;;;;;;8.63;5.82;;;;;;;5.09;93.57;99918.25;5002996;28;20571;-81
2022/09/29 03:49:27;;;;;;;7.93;6.05;;;;;;;5.11;94.23;99925.88;4995240;28;20023;-81
2022/09/29 03:51:53;;;;;;;8.95;5.93;;;;;;;5.11;94.50;99920.72;4996790;28;20471;-81
2022/09/29 03:54:18;;;;;;;10.63;7.03;;;;;;;5.17;94.58;99930.56;4993552;28;20026;-81
2022/09/29 03:56:43;;;;;;;9.80;7.20;;;;;;;5.12;94.62;99928.31;4999758;28;20046;-81
2022/09/29 03:59:10;;;;;;;9.35;6.40;;;;;;;5.21;95.03;99937.91;5004552;28;20041;-81
2022/09/29 04:01:37;;;;;;;10.38;6.43;;;;;;;5.21;94.74;99943.06;4995183;28;20362;-81
2022/09/29 04:04:02;;;;;;;10.40;6.20;;;;;;;5.18;94.55;99935.59;4992375;28;20018;-81
2022/09/29 04:06:28;;;;;;;11.25;7.88;;;;;;;5.21;95.34;99948.19;4994613;28;20439;-81
2022/09/29 04:08:53;;;;;;;9.70;6.68;;;;;;;5.22;95.32;99939.56;4995426;28;20019;-81
2022/09/29 04:11:18;;;;;;;10.60;7.15;;;;;;;5.16;95.02;99936.63;4992256;28;20480;-81
2022/09/29 04:13:44;;;;;;;11.75;6.93;;;;;;;5.16;95.26;99937.47;4993492;28;20125;-80
2022/09/29 04:16:09;;;;;;;12.18;8.55;;;;;;;5.11;94.94;99936.97;4998138;28;20026;-80
2022/09/29 04:18:35;;;;;;;11.77;6.97;;;;;;;5.22;94.76;99955.00;5005990;28;20048;-80
2022/09/29 04:21:07;;;;;;;11.20;6.60;;;;;;;5.17;94.27;99961.41;5001718;28;20460;-80
2022/09/29 04:23:33;;;;;;;9.80;5.70;;;;;;;5.14;94.75;99957.28;4990368;28;20026;-80
2022/09/29 04:26:02;;;;;;;10.50;6.10;;;;;;;5.13;94.47;99955.66;4995905;28;20029;-80
2022/09/29 04:28:30;;;;;;;15.85;6.68;;;;;;;5.11;94.48;99954.97;5006707;28;20617;-81
2022/09/29 04:30:58;;;;;;;10.70;6.60;;;;;;;5.08;94.36;99952.59;5002072;28;20017;-80
2022/09/29 04:33:24;;;;;;;9.57;6.82;;;;;;;5.08;94.55;99957.75;4991601;28;20062;-80
2022/09/29 04:35:49;;;;;;;12.07;8.13;;;;;;;5.03;94.64;99958.06;4996937;28;20428;-80
2022/09/29 04:38:15;;;;;;;9.60;8.05;;;;;;;4.97;94.92;99968.78;4999547;28;20101;-80
2022/09/29 04:40:40;;;;;;;9.82;6.78;;;;;;;5.02;94.42;99963.31;5002908;28;20110;-80
2022/09/29 04:43:06;;;;;;;9.02;5.85;;;;;;;5.00;94.37;99970.34;5005107;28;20025;-80
2022/09/29 04:45:32;;;;;;;8.52;5.80;;;;;;;4.95;94.24;99962.13;5000264;28;20085;-80
2022/09/29 04:47:57;;;;;;;8.63;5.20;;;;;;;4.98;94.17;99977.31;4999628;28;20545;-80
2022/09/29 04:50:23;;;;;;;7.25;4.32;;;;;;;4.92;93.45;99970.06;5005500;28;20026;-80
2022/09/29 04:52:49;;;;;;;7.10;4.80;;;;;;;4.87;93.78;99974.69;5003595;28;20065;-79
2022/09/29 04:55:14;;;;;;;6.82;4.47;;;;;;;4.85;93.65;99977.38;5002810;28;20056;-79
2022/09/29 04:57:42;;;;;;;7.20;5.00;;;;;;;4.73;93.75;99966.22;5003743;28;20030;-80
2022/09/29 05:00:09;;;;;;;7.43;4.80;;;;;;;4.79;93.88;99970.13;5001803;28;20030;-80
2022/09/29 05:02:35;;;;;;;7.35;5.45;;;;;;;4.78;93.88;99982.13;5005532;28;20061;-80
2022/09/29 05:05:01;;;;;;;10.38;5.88;;;;;;;4.78;94.17;99981.31;5006337;28;20018;-80
2022/09/29 05:07:27;;;;;;;8.70;5.30;;;;;;;4.78;94.43;99977.00;5004230;28;20045;-80
2022/09/29 05:09:52;;;;;;;10.82;5.63;;;;;;;4.76;94.37;99978.06;4996368;28;20034;-80
2022/09/29 05:12:17;;;;;;;8.82;6.35;;;;;;;4.66;94.53;99966.78;5005671;28;20018;-80
2022/09/29 05:14:43;;;;;;;10.10;6.38;;;;;;;4.73;94.51;99984.22;5002976;28;20013;-80
2022/09/29 05:17:08;;;;;;;8.70;7.22;;;;;;;4.65;94.51;99981.38;4991842;28;20574;-80
2022/09/29 05:19:34;;;;;;;7.78;5.30;;;;;;;4.72;94.78;99982.56;4997099;28;20038;-80
2022/09/29 05:21:59;;;;;;;9.43;6.53;;;;;;;4.70;94.35;99996.44;5002649;28;20064;-80
2022/09/29 05:24:26;;;;;;;7.50;5.35;;;;;;;4.64;94.42;99984.84;4999508;28;20117;-80
2022/09/29 05:26:51;;;;;;;8.52;5.70;;;;;;;4.68;94.56;99986.28;5000154;28;20033;-80
2022/09/29 05:29:17;;;;;;;7.88;5.88;;;;;;;4.71;94.37;99995.53;5005368;28;20041;-80
2022/09/29 05:31:42;;;;;;;11.93;6.85;;;;;;;4.57;94.42;99996.47;5004039;28;20029;-80
2022/09/29 05:34:08;;;;;;;8.80;5.95;;;;;;;4.61;94.27;100000.50;5008410;28;20030;-80
2022/09/29 05:36:34;;;;;;;8.55;5.97;;;;;;;4.50;93.68;100000.41;5009211;28;20025;-80
2022/09/29 05:38:59;;;;;;;8.93;5.85;;;;;;;4.46;93.91;100002.38;5005892;28;20045;-80
2022/09/29 05:41:24;;;;;;;8.82;5.65;;;;;;;4.53;93.57;100018.19;5007671;28;20144;-80
2022/09/29 05:43:55;;;;;;;10.00;5.97;;;;;;;4.43;94.34;100006.91;5005475;28;20030;-81
2022/09/29 05:46:21;;;;;;;11.90;6.68;;;;;;;4.50;94.43;100023.53;5002065;28;20657;-81
2022/09/29 05:48:47;;;;;;;9.48;6.90;;;;;;;4.47;94.69;100018.59;4999059;28;20035;-80
2022/09/29 05:51:15;;;;;;;10.60;7.32;;;;;;;4.46;95.33;100022.09;5001333;28;20463;-81
2022/09/29 05:53:41;;;;;;;8.90;5.90;;;;;;;4.50;94.70;100023.53;4999746;28;20044;-81
2022/09/29 05:56:15;;;;;;;9.30;5.93;;;;;;;4.51;94.99;100012.31;5000884;28;20770;-81
2022/09/29 05:58:41;;;;;;;10.30;5.45;;;;;;;4.46;94.82;100017.78;5008530;28;20054;-81
2022/09/29 06:01:09;;;;;;;8.60;5.78;;;;;;;4.44;94.82;100009.38;5008594;28;20052;-81
2022/09/29 06:03:35;;;;;;;8.95;6.32;;;;;;;4.51;94.92;100030.28;5004792;28;20036;-81
2022/09/29 06:06:14;;;;;;;9.50;6.03;;;;;;;4.53;95.03;100025.91;4999632;28;20140;-80
2022/09/29 06:08:40;;;;;;;8.15;6.07;;;;;;;4.53;95.36;100031.03;4988997;28;20555;-80
2022/09/29 06:11:17;;;;;;;10.18;5.90;;;;;;;4.48;95.38;100022.81;5006309;28;20025;-80
2022/09/29 06:13:45;;;;;;;10.63;6.15;;;;;;;4.43;95.86;100023.13;5009443;28;20037;-80
2022/09/29 06:16:11;;;;;;;9.13;6.07;;;;;;;4.53;95.68;100038.72;5005570;28;20033;-81
2022/09/29 06:18:37;;;;;;;9.93;7.05;;;;;;;4.49;96.07;100027.84;5008236;28;20036;-80
2022/09/29 06:21:08;;;;;;;12.32;6.47;;;;;;;4.57;95.76;100045.28;5008759;28;20026;-80
2022/09/29 06:23:34;;;;;;;9.30;6.72;;;;;;;4.58;95.90;100046.91;5005199;28;20030;-80
2022/09/29 06:26:01;;;;;;;9.23;6.50;;;;;;;4.55;95.80;100042.00;4997565;28;20030;-80
2022/09/29 06:28:28;;;;;;;10.43;6.70;;;;;;;4.58;95.83;100041.78;5000269;28;20045;-80
2022/09/29 06:31:02;;;;;;;10.80;6.80;;;;;;;4.57;95.93;100049.59;5007989;28;20105;-81
2022/09/29 06:33:28;;;;;;;11.45;7.28;;;;;;;4.59;96.07;100053.72;5001343;28;20046;-83
2022/09/29 06:38:39;;;;;;;10.00;7.70;;;;;;;4.60;96.22;100054.53;5005295;28;20044;-78
2022/09/29 06:41:05;;;;;;;10.27;6.45;;;;;;;4.63;96.63;100050.00;5003515;28;20026;-78
2022/09/29 06:43:30;;;;;;;10.35;6.90;;;;;;;4.67;96.54;100061.69;5007685;28;20026;-79
2022/09/29 06:45:55;;;;;;;11.40;8.30;;;;;;;4.73;96.86;100066.41;5002450;28;20029;-78
2022/09/29 06:48:21;;;;;;;10.43;7.30;;;;;;;4.75;96.42;100064.53;5007182;28;20033;-78
2022/09/29 06:50:47;;;;;;;12.80;8.70;;;;;;;4.76;96.54;100066.22;4999728;28;20465;-79
2022/09/29 06:53:13;;;;;;;12.05;7.68;;;;;;;4.76;96.84;100065.41;5006299;28;20061;-79
2022/09/29 06:55:38;;;;;;;13.02;8.00;;;;;;;4.88;96.90;100074.00;4996396;28;20540;-79
2022/09/29 06:58:03;;;;;;;12.60;9.15;;;;;;;4.86;96.61;100070.69;5001530;28;20049;-79
2022/09/29 07:00:29;;;;;;;13.40;9.80;;;;;;;4.93;97.19;100077.88;5000364;28;20048;-79
2022/09/29 07:02:54;;;;;;;12.98;9.05;;;;;;;4.92;97.35;100070.25;4999323;28;20018;-79
2022/09/29 07:05:20;;;;;;;12.50;9.10;;;;;;;4.99;97.58;100082.59;4999941;28;20037;-79
2022/09/29 07:07:48;;;;;;;12.55;8.63;;;;;;;4.98;97.69;100080.09;5001239;28;20064;-79
2022/09/29 07:10:14;;;;;;;15.50;10.10;;;;;;;5.00;97.21;100078.28;5001418;28;20068;-80
2022/09/29 07:12:40;;;;;;;14.18;10.40;;;;;;;5.01;97.28;100069.63;5004100;28;20030;-80
2022/09/29 07:15:06;;;;;;;14.48;9.93;;;;;;;5.07;97.56;100088.00;4997081;28;20033;-80
2022/09/29 07:17:31;;;;;;;14.23;10.25;;;;;;;5.19;97.52;100098.34;5006060;28;20084;-78
2022/09/29 07:19:57;;;;;;;15.13;9.55;;;;;;;5.22;97.80;100098.97;5005905;28;20034;-79
2022/09/29 07:22:23;;;;;;;15.77;10.63;;;;;;;5.18;97.74;100076.16;5007622;28;20033;-79
2022/09/29 07:24:49;;;;;;;15.93;14.23;;;;;;;5.27;97.72;100091.72;5006624;28;20041;-79
2022/09/29 07:27:20;;;;;;;15.15;10.35;;;;;;;5.31;97.73;100093.16;5006903;28;20045;-79
2022/09/29 07:29:45;;;;;;;14.88;10.38;;;;;;;5.41;97.69;100092.50;5005562;28;20080;-79
2022/09/29 07:32:10;;;;;;;17.48;14.25;;;;;;;5.45;98.12;100088.75;5007151;28;20084;-80
2022/09/29 07:34:35;;;;;;;18.48;13.13;;;;;;;5.51;98.19;100090.91;5007680;28;20018;-80
2022/09/29 07:37:01;;;;;;;18.63;13.68;;;;;;;5.60;98.25;100100.53;5007431;28;20122;-79
2022/09/29 07:39:26;;;;;;;18.10;13.88;;;;;;;5.60;98.16;100096.19;5002862;28;20056;-80
2022/09/29 07:41:52;;;;;;;17.08;12.45;;;;;;;5.65;98.72;100088.16;4996176;28;20083;-80
2022/09/29 07:44:17;;;;;;;18.30;12.00;;;;;;;5.76;98.63;100098.47;4990354;28;20461;-80
2022/09/29 07:46:42;;;;;;;18.65;14.27;;;;;;;5.84;98.50;100093.56;5002332;28;20411;-80
2022/09/29 07:49:08;;;;;;;20.25;13.15;;;;;;;5.92;99.29;100102.53;5007000;28;20057;-79
2022/09/29 07:51:33;;;;;;;18.98;11.15;;;;;;;5.96;98.56;100098.78;5007468;28;20033;-79
2022/09/29 07:54:03;;;;;;;16.42;11.27;;;;;;;6.09;98.54;100109.84;5006593;28;20026;-80
2022/09/29 07:56:29;;;;;;;16.42;10.60;;;;;;;6.17;99.15;100117.78;5007194;28;20411;-80
2022/09/29 07:58:55;;;;;;;17.95;15.70;;;;;;;6.24;99.32;100124.13;5004535;28;20054;-79
2022/09/29 08:01:21;;;;;;;16.85;12.73;;;;;;;6.33;98.58;100118.28;5001979;28;20475;-79
2022/09/29 08:03:52;;;;;;;16.88;11.43;;;;;;;6.37;99.52;100114.56;5002960;28;20056;-80
2022/09/29 08:06:18;;;;;;;17.92;13.07;;;;;;;6.55;99.35;100132.13;5002756;28;20026;-80
2022/09/29 08:08:44;;;;;;;20.23;15.95;;;;;;;6.56;99.56;100115.75;5001470;28;20025;-79
2022/09/29 08:11:12;;;;;;;21.77;15.57;;;;;;;6.61;99.61;100121.38;5001972;28;20034;-79
2022/09/29 08:13:38;;;;;;;17.75;14.00;;;;;;;6.80;99.93;100136.22;5003864;28;20029;-80
2022/09/29 08:16:06;;;;;;;20.05;15.38;;;;;;;6.87;100.00;100142.53;4996440;28;20033;-80
2022/09/29 08:18:33;;;;;;;19.52;16.20;;;;;;;6.97;99.90;100142.66;4997651;28;20029;-81
2022/09/29 08:20:59;;;;;;;20.45;16.05;;;;;;;7.03;99.97;100137.84;4992036;28;20109;-79
2022/09/29 08:23:25;;;;;;;17.70;13.48;;;;;;;7.06;99.11;100139.38;4994770;28;20377;-80
2022/09/29 08:26:06;;;;;;;20.15;17.00;;;;;;;7.21;99.01;100145.91;5004551;28;20053;-80
2022/09/29 08:28:33;;;;;;;23.23;17.40;;;;;;;7.23;98.85;100143.22;4996176;28;20026;-79
2022/09/29 08:31:09;;;;;;;21.65;19.35;;;;;;;7.32;99.11;100147.66;5003579;28;20022;-79
2022/09/29 08:33:35;;;;;;;22.70;19.33;;;;;;;7.43;98.91;100150.19;5002629;28;20587;-79
2022/09/29 08:36:04;;;;;;;23.48;16.85;;;;;;;7.58;99.06;100155.91;4996206;28;20026;-79
2022/09/29 08:38:30;;;;;;;22.52;18.40;;;;;;;7.65;98.98;100165.63;4997562;28;20044;-80
2022/09/29 08:40:56;;;;;;;26.77;24.08;;;;;;;7.70;99.15;100162.69;5000971;28;20038;-79
2022/09/29 08:43:25;;;;;;;23.05;20.67;;;;;;;7.82;98.75;100166.03;5006229;28;20056;-80
2022/09/29 08:46:16;;;;;;;24.92;22.35;;;;;;;7.87;99.38;100154.38;5004594;28;20088;-79
2022/09/29 08:48:43;;;;;;;24.00;20.38;;;;;;;8.03;99.48;100163.47;5005153;28;20037;-79
2022/09/29 08:51:42;;;;;;;24.38;18.90;;;;;;;8.11;99.49;100167.06;5004823;28;20029;-79
2022/09/29 08:54:20;;;;;;;22.63;20.00;;;;;;;8.29;98.58;100169.09;5004809;28;20026;-79
2022/09/29 08:56:46;;;;;;;;;;;;;;;8.38;98.54;100171.78;4993528;28;20022;-79
2022/09/29 08:59:11;;;;;;;23.92;21.50;;;;;;;8.42;98.02;100160.22;5000549;28;19921;-80
2022/09/29 09:02:18;;;;;;;24.90;22.60;;;;;;;8.63;97.29;100169.72;4997697;28;20575;-79
2022/09/29 09:05:01;;;;;;;21.95;18.48;;;;;;;8.77;97.40;100179.69;4997028;28;20551;-80
2022/09/29 09:07:36;;;;;;;20.77;17.58;;;;;;;8.84;96.38;100175.69;5003363;28;20048;-80
2022/09/29 09:10:12;;;;;;;20.95;18.85;;;;;;;8.94;95.96;100186.03;5009378;28;20034;-79
2022/09/29 09:13:01;;;;;;;24.25;21.95;;;;;;;9.15;96.15;100183.41;5007177;28;20195;-79
2022/09/29 09:16:04;;;;;;;22.30;20.10;;;;;;;9.26;95.90;100191.06;5008169;28;20034;-79
2022/09/29 09:19:00;;;;;;;22.10;14.63;;;;;;;9.26;95.33;100183.28;5000676;28;20117;-80
2022/09/29 09:22:02;;;;;;;22.02;18.15;;;;;;;9.50;95.16;100190.69;5005872;28;20380;-81
2022/09/29 09:24:40;;;;;;;22.48;20.35;;;;;;;9.57;95.20;100192.59;5005382;28;20023;-80
2022/09/29 09:27:14;;;;;;;19.42;17.50;;;;;;;9.70;93.79;100191.56;5006312;28;20616;-80
2022/09/29 09:29:43;;;;;;;19.42;17.70;;;;;;;9.76;93.34;100198.78;5022853;28;20036;-80
2022/09/29 09:32:13;;;;;;;20.38;18.48;;;;;;;9.79;91.97;100194.13;5007909;28;20577;-80
2022/09/29 09:34:48;;;;;;;18.67;16.88;;;;;;;9.95;92.41;100196.19;5010079;28;20021;-80
2022/09/29 09:37:40;;;;;;;18.05;16.15;;;;;;;10.07;92.20;100197.69;5004567;28;20022;-81
2022/09/29 09:40:18;;;;;;;18.75;16.85;;;;;;;10.15;91.97;100199.59;4997565;28;20049;-81
2022/09/29 09:42:51;;;;;;;19.65;17.75;;;;;;;10.17;90.96;100209.81;5008211;28;20069;-80
2022/09/29 09:45:29;;;;;;;19.98;18.17;;;;;;;10.23;91.50;100201.50;5003078;28;20074;-80
2022/09/29 09:48:29;;;;;;;19.20;17.45;;;;;;;10.37;91.33;100193.31;5003091;28;20034;-80
2022/09/29 09:50:54;;;;;;;18.77;16.83;;;;;;;10.35;89.86;100197.81;5004859;28;20030;-80
2022/09/29 09:53:34;;;;;;;16.58;14.88;;;;;;;10.35;88.23;100197.81;5003663;28;20488;-80
2022/09/29 09:56:27;;;;;;;16.13;14.48;;;;;;;10.54;89.89;100200.38;5008128;28;20041;-80
2022/09/29 09:59:12;;;;;;;16.77;15.18;;;;;;;10.52;88.21;100204.88;5006236;28;20065;-80
2022/09/29 10:01:38;;;;;;;17.00;15.50;;;;;;;10.82;89.92;100198.66;5009774;28;20029;-80
2022/09/29 10:04:03;;;;;;;17.52;15.95;;;;;;;10.89;89.05;100198.91;5008600;28;20028;-80
2022/09/29 10:06:28;;;;;;;16.77;15.18;;;;;;;10.73;87.79;100199.53;5009426;28;20866;-80
2022/09/29 10:08:54;;;;;;;16.38;14.90;;;;;;;10.95;85.36;100213.91;5008352;28;20107;-80
2022/09/29 10:11:31;;;;;;;17.75;16.13;;;;;;;11.02;86.93;100212.38;5008356;28;20111;-80
2022/09/29 10:14:12;;;;;;;17.10;15.50;;;;;;;11.22;87.14;100214.88;5002367;28;20025;-79
2022/09/29 10:16:45;;;;;;;16.27;14.77;;;;;;;11.14;85.18;100218.22;5008410;28;20034;-80
2022/09/29 10:19:11;;;;;;;17.27;15.60;;;;;;;11.10;85.79;100204.69;5008090;28;20034;-80
2022/09/29 10:21:42;;;;;;;17.77;16.08;;;;;;;11.28;86.29;100216.91;5009249;28;20033;-80
2022/09/29 10:24:21;;;;;;;17.55;15.95;;;;;;;11.38;86.99;100220.28;5006802;28;20026;-81
2022/09/29 10:26:49;;;;;;;16.02;14.63;;;;;;;11.40;84.59;100226.13;5002712;28;20040;-79
2022/09/29 10:29:32;;;;;;;17.33;15.60;;;;;;;11.42;84.93;100224.22;5003372;28;20026;-80
2022/09/29 10:32:03;;;;;;;18.10;16.40;;;;;;;11.38;86.00;100230.66;5008337;28;20029;-79
2022/09/29 10:34:31;;;;;;;16.48;14.88;;;;;;;11.33;83.18;100225.06;5003762;28;20604;-80
2022/09/29 10:37:01;;;;;;;16.70;15.00;;;;;;;11.36;83.40;100223.03;5008681;28;20029;-79
2022/09/29 10:39:30;;;;;;;17.50;15.88;;;;;;;11.67;83.01;100220.91;5008974;28;20437;-79
2022/09/29 10:41:55;;;;;;;18.38;16.60;;;;;;;11.55;84.28;100227.28;5007190;28;20394;-80
2022/09/29 10:44:21;;;;;;;17.50;15.90;;;;;;;11.67;85.05;100213.13;5006352;28;20117;-79
2022/09/29 10:46:54;;;;;;;17.88;16.30;;;;;;;11.77;83.61;100220.03;5008823;28;20863;-79
2022/09/29 10:49:22;;;;;;;17.77;16.08;;;;;;;11.87;85.13;100211.25;5005941;28;20030;-79
2022/09/29 10:51:58;;;;;;;17.25;15.75;;;;;;;12.10;81.63;100222.00;4998055;28;20125;-80
2022/09/29 10:54:25;;;;;;;17.13;15.48;;;;;;;12.10;81.92;100224.59;5008053;28;20499;-79
2022/09/29 10:56:51;;;;;;;16.98;15.27;;;;;;;12.14;81.69;100231.13;5007101;28;20125;-79
2022/09/29 10:59:18;;;;;;;15.98;14.38;;;;;;;12.40;81.05;100207.75;5008057;28;20050;-79
2022/09/29 11:01:49;;;;;;;16.80;15.27;;;;;;;12.45;81.00;100220.31;5007451;28;20036;-79
2022/09/29 11:04:31;;;;;;;16.20;14.70;;;;;;;12.30;79.61;100227.03;5007529;28;20026;-79
2022/09/29 11:07:09;;;;;;;15.95;14.45;;;;;;;12.27;79.56;100219.50;5006075;28;20036;-79
2022/09/29 11:09:39;;;;;;;16.08;14.65;;;;;;;12.37;79.75;100233.25;5008744;28;20033;-78
2022/09/29 11:12:05;;;;;;;17.65;16.05;;;;;;;12.39;80.99;100218.31;5006991;28;20018;-79
2022/09/29 11:14:36;;;;;;;17.80;16.15;;;;;;;12.43;80.96;100227.44;5006616;28;20072;-80
2022/09/29 11:17:27;;;;;;;19.05;17.35;;;;;;;12.70;82.97;100235.09;5002296;28;20501;-79
2022/09/29 11:19:57;;;;;;;18.33;16.50;;;;;;;12.69;81.09;100230.88;4996967;28;20041;-80
2022/09/29 11:23:00;;;;;;;18.33;16.73;;;;;;;12.86;83.15;100228.38;4994621;28;20026;-79
2022/09/29 11:26:06;;;;;;;16.48;14.95;;;;;;;12.86;81.38;100238.78;5007313;28;20056;-79
2022/09/29 11:28:50;;;;;;;16.45;15.05;;;;;;;12.94;79.73;100236.22;5004128;28;20029;-79
2022/09/29 11:31:26;;;;;;;15.70;14.30;;;;;;;12.97;78.47;100230.72;5002496;28;20036;-79
2022/09/29 11:33:54;;;;;;;15.50;13.98;;;;;;;13.05;76.74;100243.75;5005332;28;20068;-79
2022/09/29 11:36:25;;;;;;;16.02;14.63;;;;;;;13.31;78.19;100237.72;5001842;28;20033;-79
2022/09/29 11:38:59;;;;;;;15.50;14.10;;;;;;;13.16;76.96;100240.88;5001940;28;20033;-81
2022/09/29 11:41:40;;;;;;;15.40;14.00;;;;;;;13.31;75.97;100232.53;4999599;28;20034;-80
2022/09/29 11:44:17;;;;;;;16.40;14.90;;;;;;;13.36;76.50;100241.50;4987596;28;20030;-81
2022/09/29 11:47:12;;;;;;;15.80;14.40;;;;;;;13.34;75.90;100242.59;5001618;28;20038;-83
2022/09/29 11:49:54;;;;;;;15.32;13.85;;;;;;;13.35;76.23;100228.59;5005857;28;20025;-80